sensor_id;sensor_type;location;lat;lon;timestamp;P1;durP1;ratioP1;P2;durP2;ratioP2
48897;SDS011;34713;50.038;20.000;2023-09-12T00:00:51;13.60;;;10.30;;
48897;SDS011;34713;50.038;20.000;2023-09-12T00:03:34;15.70;;;11.80;;
48897;SDS011;34713;50.038;20.000;2023-09-12T00:06:04;14.10;;;11.70;;
48897;SDS011;34713;50.038;20.000;2023-09-12T00:08:31;17.30;;;11.70;;
48897;SDS011;34713;50.038;20.000;2023-09-12T00:11:02;17.50;;;11.10;;
48897;SDS011;34713;50.038;20.000;2023-09-12T00:13:38;19.20;;;12.10;;
48897;SDS011;34713;50.038;20.000;2023-09-12T00:16:06;18.30;;;13.10;;
48897;SDS011;34713;50.038;20.000;2023-09-12T00:18:38;16.10;;;11.20;;
48897;SDS011;34713;50.038;20.000;2023-09-12T00:21:11;14.30;;;11.50;;
48897;SDS011;34713;50.038;20.000;2023-09-12T00:23:40;16.10;;;11.90;;
48897;SDS011;34713;50.038;20.000;2023-09-12T00:26:10;16.60;;;10.90;;
48897;SDS011;34713;50.038;20.000;2023-09-12T00:28:46;16.60;;;10.90;;
48897;SDS011;34713;50.038;20.000;2023-09-12T00:31:15;17.40;;;12.50;;
48897;SDS011;34713;50.038;20.000;2023-09-12T00:33:47;16.10;;;12.10;;
48897;SDS011;34713;50.038;20.000;2023-09-12T00:36:17;15.80;;;12.10;;
48897;SDS011;34713;50.038;20.000;2023-09-12T00:38:50;18.10;;;12.30;;
48897;SDS011;34713;50.038;20.000;2023-09-12T00:41:20;26.10;;;12.70;;
48897;SDS011;34713;50.038;20.000;2023-09-12T00:43:52;20.30;;;12.70;;
48897;SDS011;34713;50.038;20.000;2023-09-12T00:46:19;15.50;;;11.90;;
48897;SDS011;34713;50.038;20.000;2023-09-12T00:48:50;17.40;;;12.40;;
48897;SDS011;34713;50.038;20.000;2023-09-12T00:51:20;14.40;;;11.90;;
48897;SDS011;34713;50.038;20.000;2023-09-12T00:53:50;18.90;;;12.80;;
48897;SDS011;34713;50.038;20.000;2023-09-12T00:56:20;18.20;;;11.50;;
48897;SDS011;34713;50.038;20.000;2023-09-12T00:59:17;18.40;;;13.00;;
48897;SDS011;34713;50.038;20.000;2023-09-12T01:01:45;19.00;;;13.80;;
48897;SDS011;34713;50.038;20.000;2023-09-12T01:04:32;17.90;;;12.40;;
48897;SDS011;34713;50.038;20.000;2023-09-12T01:07:43;19.10;;;12.00;;
48897;SDS011;34713;50.038;20.000;2023-09-12T01:10:10;19.90;;;13.20;;
48897;SDS011;34713;50.038;20.000;2023-09-12T01:12:40;18.90;;;12.80;;
48897;SDS011;34713;50.038;20.000;2023-09-12T01:15:11;21.70;;;13.40;;
48897;SDS011;34713;50.038;20.000;2023-09-12T01:17:40;18.50;;;12.30;;
48897;SDS011;34713;50.038;20.000;2023-09-12T01:20:14;17.50;;;13.30;;
48897;SDS011;34713;50.038;20.000;2023-09-12T01:28:26;18.20;;;12.70;;
48897;SDS011;34713;50.038;20.000;2023-09-12T01:31:01;20.70;;;12.70;;
48897;SDS011;34713;50.038;20.000;2023-09-12T01:33:30;18.50;;;12.30;;
48897;SDS011;34713;50.038;20.000;2023-09-12T01:35:57;17.90;;;13.50;;
48897;SDS011;34713;50.038;20.000;2023-09-12T01:38:29;17.00;;;12.70;;
48897;SDS011;34713;50.038;20.000;2023-09-12T01:41:28;17.50;;;13.30;;
48897;SDS011;34713;50.038;20.000;2023-09-12T01:44:08;17.70;;;12.80;;
48897;SDS011;34713;50.038;20.000;2023-09-12T01:46:36;17.50;;;12.70;;
48897;SDS011;34713;50.038;20.000;2023-09-12T01:49:13;17.50;;;12.70;;
48897;SDS011;34713;50.038;20.000;2023-09-12T01:51:44;19.30;;;12.50;;
48897;SDS011;34713;50.038;20.000;2023-09-12T01:54:11;15.80;;;11.70;;
48897;SDS011;34713;50.038;20.000;2023-09-12T01:56:41;26.40;;;13.30;;
48897;SDS011;34713;50.038;20.000;2023-09-12T01:59:30;17.40;;;12.80;;
48897;SDS011;34713;50.038;20.000;2023-09-12T02:02:06;18.50;;;12.80;;
48897;SDS011;34713;50.038;20.000;2023-09-12T02:04:50;17.80;;;13.50;;
48897;SDS011;34713;50.038;20.000;2023-09-12T02:07:39;17.10;;;12.80;;
48897;SDS011;34713;50.038;20.000;2023-09-12T02:10:27;18.10;;;13.10;;
48897;SDS011;34713;50.038;20.000;2023-09-12T02:13:14;20.10;;;13.20;;
48897;SDS011;34713;50.038;20.000;2023-09-12T02:15:41;16.10;;;12.30;;
48897;SDS011;34713;50.038;20.000;2023-09-12T02:18:08;19.70;;;13.00;;
48897;SDS011;34713;50.038;20.000;2023-09-12T02:20:50;17.00;;;12.00;;
48897;SDS011;34713;50.038;20.000;2023-09-12T02:23:24;16.50;;;12.50;;
48897;SDS011;34713;50.038;20.000;2023-09-12T02:25:54;20.60;;;13.10;;
48897;SDS011;34713;50.038;20.000;2023-09-12T02:28:24;17.70;;;12.40;;
48897;SDS011;34713;50.038;20.000;2023-09-12T02:33:51;19.80;;;12.30;;
48897;SDS011;34713;50.038;20.000;2023-09-12T02:36:17;22.20;;;12.60;;
48897;SDS011;34713;50.038;20.000;2023-09-12T02:38:49;17.20;;;13.40;;
48897;SDS011;34713;50.038;20.000;2023-09-12T02:41:24;16.00;;;13.00;;
48897;SDS011;34713;50.038;20.000;2023-09-12T02:43:53;16.50;;;12.60;;
48897;SDS011;34713;50.038;20.000;2023-09-12T02:46:32;16.60;;;12.30;;
48897;SDS011;34713;50.038;20.000;2023-09-12T02:49:08;20.00;;;13.80;;
48897;SDS011;34713;50.038;20.000;2023-09-12T02:54:42;20.50;;;12.90;;
48897;SDS011;34713;50.038;20.000;2023-09-12T02:57:12;17.40;;;12.80;;
48897;SDS011;34713;50.038;20.000;2023-09-12T02:59:44;17.70;;;12.90;;
48897;SDS011;34713;50.038;20.000;2023-09-12T03:02:35;17.60;;;12.20;;
48897;SDS011;34713;50.038;20.000;2023-09-12T03:05:05;17.80;;;13.20;;
48897;SDS011;34713;50.038;20.000;2023-09-12T03:07:55;14.60;;;11.90;;
48897;SDS011;34713;50.038;20.000;2023-09-12T03:10:35;15.80;;;12.20;;
48897;SDS011;34713;50.038;20.000;2023-09-12T03:13:04;15.50;;;12.00;;
48897;SDS011;34713;50.038;20.000;2023-09-12T03:15:36;19.50;;;12.80;;
48897;SDS011;34713;50.038;20.000;2023-09-12T03:18:04;15.40;;;12.10;;
48897;SDS011;34713;50.038;20.000;2023-09-12T03:20:31;15.30;;;12.60;;
48897;SDS011;34713;50.038;20.000;2023-09-12T03:23:16;14.20;;;12.10;;
48897;SDS011;34713;50.038;20.000;2023-09-12T03:26:04;22.50;;;15.00;;
48897;SDS011;34713;50.038;20.000;2023-09-12T03:31:23;18.20;;;13.50;;
48897;SDS011;34713;50.038;20.000;2023-09-12T03:33:55;19.00;;;13.40;;
48897;SDS011;34713;50.038;20.000;2023-09-12T03:36:30;21.40;;;12.70;;
48897;SDS011;34713;50.038;20.000;2023-09-12T03:39:18;15.60;;;12.70;;
48897;SDS011;34713;50.038;20.000;2023-09-12T03:41:50;16.30;;;12.20;;
48897;SDS011;34713;50.038;20.000;2023-09-12T03:44:38;18.60;;;12.50;;
48897;SDS011;34713;50.038;20.000;2023-09-12T03:47:33;16.20;;;13.00;;
48897;SDS011;34713;50.038;20.000;2023-09-12T03:50:15;16.50;;;13.20;;
48897;SDS011;34713;50.038;20.000;2023-09-12T03:52:42;15.10;;;12.90;;
48897;SDS011;34713;50.038;20.000;2023-09-12T03:55:11;17.30;;;12.60;;
48897;SDS011;34713;50.038;20.000;2023-09-12T03:57:43;17.30;;;13.30;;
48897;SDS011;34713;50.038;20.000;2023-09-12T04:03:03;20.20;;;13.90;;
48897;SDS011;34713;50.038;20.000;2023-09-12T04:05:33;22.50;;;14.40;;
48897;SDS011;34713;50.038;20.000;2023-09-12T04:08:02;20.30;;;13.30;;
48897;SDS011;34713;50.038;20.000;2023-09-12T04:10:29;15.90;;;13.60;;
48897;SDS011;34713;50.038;20.000;2023-09-12T04:12:55;19.80;;;13.60;;
48897;SDS011;34713;50.038;20.000;2023-09-12T04:15:22;16.20;;;13.20;;
48897;SDS011;34713;50.038;20.000;2023-09-12T04:17:49;25.50;;;15.30;;
48897;SDS011;34713;50.038;20.000;2023-09-12T04:20:28;18.20;;;13.40;;
48897;SDS011;34713;50.038;20.000;2023-09-12T04:23:16;23.60;;;13.70;;
48897;SDS011;34713;50.038;20.000;2023-09-12T04:28:47;19.80;;;13.70;;
48897;SDS011;34713;50.038;20.000;2023-09-12T04:31:16;20.30;;;13.70;;
48897;SDS011;34713;50.038;20.000;2023-09-12T04:33:50;19.00;;;13.10;;
48897;SDS011;34713;50.038;20.000;2023-09-12T04:36:42;19.50;;;13.10;;
48897;SDS011;34713;50.038;20.000;2023-09-12T04:39:29;20.40;;;13.00;;
48897;SDS011;34713;50.038;20.000;2023-09-12T04:42:05;18.80;;;12.70;;
48897;SDS011;34713;50.038;20.000;2023-09-12T04:44:36;20.70;;;13.70;;
48897;SDS011;34713;50.038;20.000;2023-09-12T04:47:09;23.50;;;13.60;;
48897;SDS011;34713;50.038;20.000;2023-09-12T04:49:39;21.60;;;13.80;;
48897;SDS011;34713;50.038;20.000;2023-09-12T04:52:08;18.70;;;12.60;;
48897;SDS011;34713;50.038;20.000;2023-09-12T04:57:43;21.40;;;13.10;;
48897;SDS011;34713;50.038;20.000;2023-09-12T05:00:50;18.90;;;12.90;;
48897;SDS011;34713;50.038;20.000;2023-09-12T05:03:23;19.10;;;14.10;;
48897;SDS011;34713;50.038;20.000;2023-09-12T05:05:53;18.60;;;12.90;;
48897;SDS011;34713;50.038;20.000;2023-09-12T05:08:22;21.80;;;13.20;;
48897;SDS011;34713;50.038;20.000;2023-09-12T05:10:59;20.10;;;13.30;;
48897;SDS011;34713;50.038;20.000;2023-09-12T05:13:29;19.00;;;12.80;;
48897;SDS011;34713;50.038;20.000;2023-09-12T05:16:01;18.90;;;13.60;;
48897;SDS011;34713;50.038;20.000;2023-09-12T05:18:28;22.10;;;14.20;;
48897;SDS011;34713;50.038;20.000;2023-09-12T05:21:15;20.80;;;13.00;;
48897;SDS011;34713;50.038;20.000;2023-09-12T05:23:45;19.80;;;12.70;;
48897;SDS011;34713;50.038;20.000;2023-09-12T05:26:12;19.40;;;12.50;;
48897;SDS011;34713;50.038;20.000;2023-09-12T05:29:02;19.80;;;12.80;;
48897;SDS011;34713;50.038;20.000;2023-09-12T05:31:32;22.70;;;13.10;;
48897;SDS011;34713;50.038;20.000;2023-09-12T05:33:58;17.40;;;12.00;;
48897;SDS011;34713;50.038;20.000;2023-09-12T05:36:30;17.10;;;11.50;;
48897;SDS011;34713;50.038;20.000;2023-09-12T05:41:43;21.20;;;11.90;;
48897;SDS011;34713;50.038;20.000;2023-09-12T05:44:19;20.80;;;11.30;;
48897;SDS011;34713;50.038;20.000;2023-09-12T05:46:46;15.50;;;10.80;;
48897;SDS011;34713;50.038;20.000;2023-09-12T05:49:13;13.80;;;11.00;;
48897;SDS011;34713;50.038;20.000;2023-09-12T05:51:50;13.20;;;10.90;;
48897;SDS011;34713;50.038;20.000;2023-09-12T05:54:17;18.00;;;10.70;;
48897;SDS011;34713;50.038;20.000;2023-09-12T05:56:45;15.40;;;10.30;;
48897;SDS011;34713;50.038;20.000;2023-09-12T05:59:14;12.50;;;9.90;;
48897;SDS011;34713;50.038;20.000;2023-09-12T06:01:55;13.60;;;9.70;;
48897;SDS011;34713;50.038;20.000;2023-09-12T06:04:40;15.40;;;9.40;;
48897;SDS011;34713;50.038;20.000;2023-09-12T06:07:10;12.60;;;8.70;;
48897;SDS011;34713;50.038;20.000;2023-09-12T06:09:40;16.80;;;9.70;;
48897;SDS011;34713;50.038;20.000;2023-09-12T06:18:18;13.70;;;9.50;;
48897;SDS011;34713;50.038;20.000;2023-09-12T06:21:05;14.40;;;9.30;;
48897;SDS011;34713;50.038;20.000;2023-09-12T06:23:40;12.70;;;8.60;;
48897;SDS011;34713;50.038;20.000;2023-09-12T06:29:43;14.10;;;8.20;;
48897;SDS011;34713;50.038;20.000;2023-09-12T06:32:26;14.90;;;8.90;;
48897;SDS011;34713;50.038;20.000;2023-09-12T06:38:31;11.20;;;9.00;;
48897;SDS011;34713;50.038;20.000;2023-09-12T06:41:00;15.30;;;8.80;;
48897;SDS011;34713;50.038;20.000;2023-09-12T06:44:01;18.50;;;8.70;;
48897;SDS011;34713;50.038;20.000;2023-09-12T06:46:51;20.20;;;9.10;;
48897;SDS011;34713;50.038;20.000;2023-09-12T06:49:18;15.70;;;8.40;;
48897;SDS011;34713;50.038;20.000;2023-09-12T06:51:44;19.70;;;8.50;;
48897;SDS011;34713;50.038;20.000;2023-09-12T06:54:11;14.00;;;8.20;;
48897;SDS011;34713;50.038;20.000;2023-09-12T06:56:38;12.70;;;7.00;;
48897;SDS011;34713;50.038;20.000;2023-09-12T06:59:08;10.30;;;6.90;;
48897;SDS011;34713;50.038;20.000;2023-09-12T07:01:35;13.30;;;6.80;;
48897;SDS011;34713;50.038;20.000;2023-09-12T07:04:02;8.70;;;6.90;;
48897;SDS011;34713;50.038;20.000;2023-09-12T07:06:29;13.50;;;7.00;;
48897;SDS011;34713;50.038;20.000;2023-09-12T07:08:56;12.70;;;6.60;;
48897;SDS011;34713;50.038;20.000;2023-09-12T07:11:23;10.70;;;6.70;;
48897;SDS011;34713;50.038;20.000;2023-09-12T07:13:50;14.10;;;7.00;;
48897;SDS011;34713;50.038;20.000;2023-09-12T07:16:17;11.80;;;6.80;;
48897;SDS011;34713;50.038;20.000;2023-09-12T07:18:44;9.40;;;6.70;;
48897;SDS011;34713;50.038;20.000;2023-09-12T07:21:10;12.00;;;7.00;;
48897;SDS011;34713;50.038;20.000;2023-09-12T07:23:38;11.40;;;6.40;;
48897;SDS011;34713;50.038;20.000;2023-09-12T07:26:05;10.50;;;6.80;;
48897;SDS011;34713;50.038;20.000;2023-09-12T07:28:32;13.90;;;6.70;;
48897;SDS011;34713;50.038;20.000;2023-09-12T07:31:02;13.90;;;7.10;;
48897;SDS011;34713;50.038;20.000;2023-09-12T07:33:32;6.80;;;6.10;;
48897;SDS011;34713;50.038;20.000;2023-09-12T07:39:22;10.40;;;6.30;;
48897;SDS011;34713;50.038;20.000;2023-09-12T07:42:11;9.20;;;6.20;;
48897;SDS011;34713;50.038;20.000;2023-09-12T07:47:59;13.30;;;6.50;;
48897;SDS011;34713;50.038;20.000;2023-09-12T07:53:30;10.80;;;6.30;;
48897;SDS011;34713;50.038;20.000;2023-09-12T07:56:00;9.80;;;6.60;;
48897;SDS011;34713;50.038;20.000;2023-09-12T07:58:32;7.60;;;6.30;;
48897;SDS011;34713;50.038;20.000;2023-09-12T08:01:06;15.30;;;6.60;;
48897;SDS011;34713;50.038;20.000;2023-09-12T08:03:34;10.90;;;6.40;;
48897;SDS011;34713;50.038;20.000;2023-09-12T08:06:01;11.40;;;7.30;;
48897;SDS011;34713;50.038;20.000;2023-09-12T08:12:28;9.30;;;5.60;;
48897;SDS011;34713;50.038;20.000;2023-09-12T08:15:25;8.90;;;6.10;;
48897;SDS011;34713;50.038;20.000;2023-09-12T08:17:54;6.50;;;5.80;;
48897;SDS011;34713;50.038;20.000;2023-09-12T08:20:21;11.90;;;6.30;;
48897;SDS011;34713;50.038;20.000;2023-09-12T08:23:14;7.40;;;5.70;;
48897;SDS011;34713;50.038;20.000;2023-09-12T08:25:52;8.10;;;5.80;;
48897;SDS011;34713;50.038;20.000;2023-09-12T08:28:42;11.80;;;6.30;;
48897;SDS011;34713;50.038;20.000;2023-09-12T08:31:32;8.80;;;5.80;;
48897;SDS011;34713;50.038;20.000;2023-09-12T08:34:05;13.60;;;6.00;;
48897;SDS011;34713;50.038;20.000;2023-09-12T08:36:35;8.70;;;5.80;;
48897;SDS011;34713;50.038;20.000;2023-09-12T08:39:26;9.80;;;5.90;;
48897;SDS011;34713;50.038;20.000;2023-09-12T08:42:21;11.10;;;5.80;;
48897;SDS011;34713;50.038;20.000;2023-09-12T08:45:30;7.80;;;5.60;;
48897;SDS011;34713;50.038;20.000;2023-09-12T08:51:12;10.30;;;7.10;;
48897;SDS011;34713;50.038;20.000;2023-09-12T08:53:41;7.40;;;5.80;;
48897;SDS011;34713;50.038;20.000;2023-09-12T08:56:37;10.40;;;6.10;;
48897;SDS011;34713;50.038;20.000;2023-09-12T08:59:37;12.20;;;6.60;;
48897;SDS011;34713;50.038;20.000;2023-09-12T09:02:31;9.70;;;5.90;;
48897;SDS011;34713;50.038;20.000;2023-09-12T09:05:00;6.30;;;5.50;;
48897;SDS011;34713;50.038;20.000;2023-09-12T09:07:51;10.70;;;5.70;;
48897;SDS011;34713;50.038;20.000;2023-09-12T09:10:27;8.50;;;6.60;;
48897;SDS011;34713;50.038;20.000;2023-09-12T09:13:20;8.30;;;5.40;;
48897;SDS011;34713;50.038;20.000;2023-09-12T09:15:53;7.50;;;6.00;;
48897;SDS011;34713;50.038;20.000;2023-09-12T09:18:52;12.00;;;6.00;;
48897;SDS011;34713;50.038;20.000;2023-09-12T09:21:47;8.40;;;6.00;;
48897;SDS011;34713;50.038;20.000;2023-09-12T09:27:05;6.90;;;5.50;;
48897;SDS011;34713;50.038;20.000;2023-09-12T09:29:51;9.60;;;6.30;;
48897;SDS011;34713;50.038;20.000;2023-09-12T09:32:18;9.00;;;5.40;;
48897;SDS011;34713;50.038;20.000;2023-09-12T09:35:05;7.40;;;5.20;;
48897;SDS011;34713;50.038;20.000;2023-09-12T09:37:51;8.80;;;5.40;;
48897;SDS011;34713;50.038;20.000;2023-09-12T09:40:24;7.90;;;6.20;;
48897;SDS011;34713;50.038;20.000;2023-09-12T09:42:59;8.30;;;5.90;;
48897;SDS011;34713;50.038;20.000;2023-09-12T09:45:32;8.80;;;5.70;;
48897;SDS011;34713;50.038;20.000;2023-09-12T09:50:49;8.20;;;6.00;;
48897;SDS011;34713;50.038;20.000;2023-09-12T09:56:17;7.90;;;5.90;;
48897;SDS011;34713;50.038;20.000;2023-09-12T09:59:15;7.40;;;5.50;;
48897;SDS011;34713;50.038;20.000;2023-09-12T10:01:45;8.50;;;5.70;;
48897;SDS011;34713;50.038;20.000;2023-09-12T10:04:18;9.30;;;6.00;;
48897;SDS011;34713;50.038;20.000;2023-09-12T10:06:48;9.30;;;6.10;;
48897;SDS011;34713;50.038;20.000;2023-09-12T10:09:26;12.40;;;6.60;;
48897;SDS011;34713;50.038;20.000;2023-09-12T10:12:16;9.70;;;6.40;;
48897;SDS011;34713;50.038;20.000;2023-09-12T10:15:14;12.90;;;5.80;;
48897;SDS011;34713;50.038;20.000;2023-09-12T10:18:26;8.20;;;6.00;;
48897;SDS011;34713;50.038;20.000;2023-09-12T10:20:52;10.00;;;5.70;;
48897;SDS011;34713;50.038;20.000;2023-09-12T10:26:29;6.30;;;4.70;;
48897;SDS011;34713;50.038;20.000;2023-09-12T10:29:37;9.40;;;5.50;;
48897;SDS011;34713;50.038;20.000;2023-09-12T10:32:17;8.00;;;5.70;;
48897;SDS011;34713;50.038;20.000;2023-09-12T10:37:55;7.50;;;5.40;;
48897;SDS011;34713;50.038;20.000;2023-09-12T10:40:49;8.40;;;6.00;;
48897;SDS011;34713;50.038;20.000;2023-09-12T10:43:29;6.50;;;5.20;;
48897;SDS011;34713;50.038;20.000;2023-09-12T10:45:56;6.70;;;5.70;;
48897;SDS011;34713;50.038;20.000;2023-09-12T10:48:25;6.60;;;5.60;;
48897;SDS011;34713;50.038;20.000;2023-09-12T10:51:12;8.00;;;5.10;;
48897;SDS011;34713;50.038;20.000;2023-09-12T10:53:59;8.40;;;5.60;;
48897;SDS011;34713;50.038;20.000;2023-09-12T10:56:33;5.90;;;4.90;;
48897;SDS011;34713;50.038;20.000;2023-09-12T11:01:53;8.50;;;4.90;;
48897;SDS011;34713;50.038;20.000;2023-09-12T11:04:40;7.50;;;4.80;;
48897;SDS011;34713;50.038;20.000;2023-09-12T11:12:48;6.90;;;4.50;;
48897;SDS011;34713;50.038;20.000;2023-09-12T11:15:19;8.20;;;4.70;;
48897;SDS011;34713;50.038;20.000;2023-09-12T11:17:48;7.90;;;5.00;;
48897;SDS011;34713;50.038;20.000;2023-09-12T11:23:55;6.20;;;4.70;;
48897;SDS011;34713;50.038;20.000;2023-09-12T11:26:28;5.30;;;4.40;;
48897;SDS011;34713;50.038;20.000;2023-09-12T11:29:10;7.80;;;4.80;;
48897;SDS011;34713;50.038;20.000;2023-09-12T11:31:39;7.20;;;4.80;;
48897;SDS011;34713;50.038;20.000;2023-09-12T11:34:11;7.30;;;5.10;;
48897;SDS011;34713;50.038;20.000;2023-09-12T11:36:41;10.00;;;5.10;;
48897;SDS011;34713;50.038;20.000;2023-09-12T11:39:22;7.60;;;4.70;;
48897;SDS011;34713;50.038;20.000;2023-09-12T11:42:09;8.10;;;4.50;;
48897;SDS011;34713;50.038;20.000;2023-09-12T11:44:39;9.30;;;4.50;;
48897;SDS011;34713;50.038;20.000;2023-09-12T11:47:13;5.80;;;4.90;;
48897;SDS011;34713;50.038;20.000;2023-09-12T11:52:23;7.50;;;4.70;;
48897;SDS011;34713;50.038;20.000;2023-09-12T11:54:51;6.70;;;4.70;;
48897;SDS011;34713;50.038;20.000;2023-09-12T11:57:20;6.00;;;4.80;;
48897;SDS011;34713;50.038;20.000;2023-09-12T11:59:49;10.00;;;5.00;;
48897;SDS011;34713;50.038;20.000;2023-09-12T12:02:18;8.60;;;4.90;;
48897;SDS011;34713;50.038;20.000;2023-09-12T12:04:45;7.40;;;5.10;;
48897;SDS011;34713;50.038;20.000;2023-09-12T12:07:25;6.10;;;4.80;;
48897;SDS011;34713;50.038;20.000;2023-09-12T12:09:55;6.30;;;4.20;;
48897;SDS011;34713;50.038;20.000;2023-09-12T12:12:22;7.40;;;4.80;;
48897;SDS011;34713;50.038;20.000;2023-09-12T12:14:49;10.50;;;5.10;;
48897;SDS011;34713;50.038;20.000;2023-09-12T12:17:18;5.60;;;5.00;;
48897;SDS011;34713;50.038;20.000;2023-09-12T12:20:10;6.70;;;5.00;;
48897;SDS011;34713;50.038;20.000;2023-09-12T12:22:41;7.90;;;5.10;;
48897;SDS011;34713;50.038;20.000;2023-09-12T12:25:19;7.80;;;5.10;;
48897;SDS011;34713;50.038;20.000;2023-09-12T12:27:49;7.90;;;5.00;;
48897;SDS011;34713;50.038;20.000;2023-09-12T12:30:37;7.80;;;4.60;;
48897;SDS011;34713;50.038;20.000;2023-09-12T12:33:09;5.90;;;4.90;;
48897;SDS011;34713;50.038;20.000;2023-09-12T12:35:36;9.00;;;5.50;;
48897;SDS011;34713;50.038;20.000;2023-09-12T12:38:03;6.80;;;4.70;;
48897;SDS011;34713;50.038;20.000;2023-09-12T12:40:37;6.60;;;5.20;;
48897;SDS011;34713;50.038;20.000;2023-09-12T12:43:15;6.00;;;4.90;;
48897;SDS011;34713;50.038;20.000;2023-09-12T12:46:03;7.00;;;5.10;;
48897;SDS011;34713;50.038;20.000;2023-09-12T12:48:36;6.70;;;4.90;;
48897;SDS011;34713;50.038;20.000;2023-09-12T12:51:24;7.30;;;5.00;;
48897;SDS011;34713;50.038;20.000;2023-09-12T12:53:54;7.40;;;4.70;;
48897;SDS011;34713;50.038;20.000;2023-09-12T12:56:22;6.80;;;5.00;;
48897;SDS011;34713;50.038;20.000;2023-09-12T12:58:59;5.60;;;4.50;;
48897;SDS011;34713;50.038;20.000;2023-09-12T13:01:40;8.20;;;4.90;;
48897;SDS011;34713;50.038;20.000;2023-09-12T13:04:12;6.20;;;4.60;;
48897;SDS011;34713;50.038;20.000;2023-09-12T13:07:05;6.70;;;5.20;;
48897;SDS011;34713;50.038;20.000;2023-09-12T13:09:40;6.00;;;4.60;;
48897;SDS011;34713;50.038;20.000;2023-09-12T13:12:09;6.10;;;5.00;;
48897;SDS011;34713;50.038;20.000;2023-09-12T13:14:42;6.00;;;4.60;;
48897;SDS011;34713;50.038;20.000;2023-09-12T13:17:14;11.90;;;5.40;;
48897;SDS011;34713;50.038;20.000;2023-09-12T13:19:43;8.90;;;5.20;;
48897;SDS011;34713;50.038;20.000;2023-09-12T13:22:27;6.20;;;4.70;;
48897;SDS011;34713;50.038;20.000;2023-09-12T13:24:59;6.90;;;5.30;;
48897;SDS011;34713;50.038;20.000;2023-09-12T13:27:50;7.20;;;4.60;;
48897;SDS011;34713;50.038;20.000;2023-09-12T13:30:27;8.20;;;5.00;;
48897;SDS011;34713;50.038;20.000;2023-09-12T13:33:24;7.60;;;5.20;;
48897;SDS011;34713;50.038;20.000;2023-09-12T13:35:51;6.40;;;4.90;;
48897;SDS011;34713;50.038;20.000;2023-09-12T13:38:46;5.60;;;5.00;;
48897;SDS011;34713;50.038;20.000;2023-09-12T13:41:34;7.20;;;5.30;;
48897;SDS011;34713;50.038;20.000;2023-09-12T13:44:42;5.10;;;4.30;;
48897;SDS011;34713;50.038;20.000;2023-09-12T13:47:23;6.90;;;5.00;;
48897;SDS011;34713;50.038;20.000;2023-09-12T13:50:30;8.40;;;4.60;;
48897;SDS011;34713;50.038;20.000;2023-09-12T13:56:51;5.70;;;4.70;;
48897;SDS011;34713;50.038;20.000;2023-09-12T13:59:28;10.30;;;5.10;;
48897;SDS011;34713;50.038;20.000;2023-09-12T14:02:24;5.70;;;4.60;;
48897;SDS011;34713;50.038;20.000;2023-09-12T14:04:52;9.30;;;4.70;;
48897;SDS011;34713;50.038;20.000;2023-09-12T14:10:40;7.00;;;4.70;;
48897;SDS011;34713;50.038;20.000;2023-09-12T14:13:36;10.60;;;5.10;;
48897;SDS011;34713;50.038;20.000;2023-09-12T14:16:13;5.90;;;4.90;;
48897;SDS011;34713;50.038;20.000;2023-09-12T14:19:21;6.80;;;4.90;;
48897;SDS011;34713;50.038;20.000;2023-09-12T14:22:23;6.10;;;5.10;;
48897;SDS011;34713;50.038;20.000;2023-09-12T14:25:00;7.30;;;4.70;;
48897;SDS011;34713;50.038;20.000;2023-09-12T14:27:33;8.90;;;5.50;;
48897;SDS011;34713;50.038;20.000;2023-09-12T14:30:02;5.80;;;4.80;;
48897;SDS011;34713;50.038;20.000;2023-09-12T14:32:32;6.80;;;5.50;;
48897;SDS011;34713;50.038;20.000;2023-09-12T14:35:02;10.00;;;4.80;;
48897;SDS011;34713;50.038;20.000;2023-09-12T14:38:09;8.10;;;5.70;;
48897;SDS011;34713;50.038;20.000;2023-09-12T14:44:24;7.60;;;5.00;;
48897;SDS011;34713;50.038;20.000;2023-09-12T14:46:59;10.70;;;5.80;;
48897;SDS011;34713;50.038;20.000;2023-09-12T14:52:31;6.20;;;5.60;;
48897;SDS011;34713;50.038;20.000;2023-09-12T14:55:27;5.20;;;4.70;;
48897;SDS011;34713;50.038;20.000;2023-09-12T15:01:11;5.80;;;5.10;;
48897;SDS011;34713;50.038;20.000;2023-09-12T15:03:46;6.30;;;5.50;;
48897;SDS011;34713;50.038;20.000;2023-09-12T15:09:25;10.60;;;5.40;;
48897;SDS011;34713;50.038;20.000;2023-09-12T15:11:52;7.00;;;5.20;;
48897;SDS011;34713;50.038;20.000;2023-09-12T15:17:30;7.30;;;5.30;;
48897;SDS011;34713;50.038;20.000;2023-09-12T15:20:07;8.00;;;4.90;;
48897;SDS011;34713;50.038;20.000;2023-09-12T15:22:43;6.80;;;4.70;;
48897;SDS011;34713;50.038;20.000;2023-09-12T15:25:19;7.10;;;5.40;;
48897;SDS011;34713;50.038;20.000;2023-09-12T15:28:08;8.20;;;5.30;;
48897;SDS011;34713;50.038;20.000;2023-09-12T15:33:33;7.20;;;4.90;;
48897;SDS011;34713;50.038;20.000;2023-09-12T15:36:09;9.10;;;5.70;;
48897;SDS011;34713;50.038;20.000;2023-09-12T15:38:41;8.80;;;4.60;;
48897;SDS011;34713;50.038;20.000;2023-09-12T15:41:08;10.50;;;5.20;;
48897;SDS011;34713;50.038;20.000;2023-09-12T15:43:53;7.20;;;5.00;;
48897;SDS011;34713;50.038;20.000;2023-09-12T15:46:20;7.40;;;5.20;;
48897;SDS011;34713;50.038;20.000;2023-09-12T15:48:50;8.00;;;5.10;;
48897;SDS011;34713;50.038;20.000;2023-09-12T15:51:16;7.20;;;5.20;;
48897;SDS011;34713;50.038;20.000;2023-09-12T15:57:01;8.40;;;5.50;;
48897;SDS011;34713;50.038;20.000;2023-09-12T15:59:35;5.70;;;4.90;;
48897;SDS011;34713;50.038;20.000;2023-09-12T16:02:05;9.00;;;5.40;;
48897;SDS011;34713;50.038;20.000;2023-09-12T16:04:37;11.40;;;6.70;;
48897;SDS011;34713;50.038;20.000;2023-09-12T16:07:17;9.30;;;5.70;;
48897;SDS011;34713;50.038;20.000;2023-09-12T16:09:44;10.50;;;5.70;;
48897;SDS011;34713;50.038;20.000;2023-09-12T16:12:13;7.40;;;6.10;;
48897;SDS011;34713;50.038;20.000;2023-09-12T16:14:40;6.90;;;5.40;;
48897;SDS011;34713;50.038;20.000;2023-09-12T16:17:09;11.70;;;5.40;;
48897;SDS011;34713;50.038;20.000;2023-09-12T16:19:36;9.10;;;5.30;;
48897;SDS011;34713;50.038;20.000;2023-09-12T16:22:02;9.30;;;6.40;;
48897;SDS011;34713;50.038;20.000;2023-09-12T16:25:00;7.80;;;5.30;;
48897;SDS011;34713;50.038;20.000;2023-09-12T16:31:24;10.90;;;5.10;;
48897;SDS011;34713;50.038;20.000;2023-09-12T16:33:56;5.50;;;5.00;;
48897;SDS011;34713;50.038;20.000;2023-09-12T16:36:44;7.90;;;5.30;;
48897;SDS011;34713;50.038;20.000;2023-09-12T16:39:13;10.90;;;5.50;;
48897;SDS011;34713;50.038;20.000;2023-09-12T16:41:45;7.60;;;4.90;;
48897;SDS011;34713;50.038;20.000;2023-09-12T16:44:17;7.10;;;5.50;;
48897;SDS011;34713;50.038;20.000;2023-09-12T16:47:36;15.10;;;6.50;;
48897;SDS011;34713;50.038;20.000;2023-09-12T16:50:44;12.90;;;6.40;;
48897;SDS011;34713;50.038;20.000;2023-09-12T16:53:16;10.90;;;6.90;;
48897;SDS011;34713;50.038;20.000;2023-09-12T16:55:58;8.40;;;6.30;;
48897;SDS011;34713;50.038;20.000;2023-09-12T16:59:02;7.80;;;5.90;;
48897;SDS011;34713;50.038;20.000;2023-09-12T17:01:29;13.20;;;6.40;;
48897;SDS011;34713;50.038;20.000;2023-09-12T17:04:19;10.80;;;6.30;;
48897;SDS011;34713;50.038;20.000;2023-09-12T17:07:16;8.20;;;5.70;;
48897;SDS011;34713;50.038;20.000;2023-09-12T17:09:45;9.00;;;5.70;;
48897;SDS011;34713;50.038;20.000;2023-09-12T17:12:23;11.70;;;5.70;;
48897;SDS011;34713;50.038;20.000;2023-09-12T17:14:56;12.30;;;6.00;;